createdAt,value
2018-03-12T00:00:20.817Z,98874.74
2018-03-12T00:02:52.127Z,98869.08
2018-03-12T00:05:23.315Z,98860.61
2018-03-12T00:07:56.263Z,98868.13
2018-03-12T00:10:27.263Z,98873.48
2018-03-12T00:12:58.874Z,98877.20
2018-03-12T00:15:30.620Z,98872.27
2018-03-12T00:18:01.974Z,98875.00
2018-03-12T00:20:35.546Z,98879.05
2018-03-12T00:23:07.954Z,98872.99
2018-03-12T00:25:39.814Z,98871.75
2018-03-12T00:28:11.363Z,98873.56
2018-03-12T00:30:43.036Z,98869.75
2018-03-12T00:33:15.453Z,98873.13
2018-03-12T00:35:47.453Z,98878.79
2018-03-12T00:38:18.764Z,98867.68
2018-03-12T00:40:50.433Z,98870.03
2018-03-12T00:43:22.774Z,98853.61
2018-03-12T00:45:54.925Z,98864.02
2018-03-12T00:48:26.331Z,98867.89
2018-03-12T00:50:59.145Z,98866.33
2018-03-12T00:53:30.912Z,98866.83
2018-03-12T00:56:07.188Z,98861.58
2018-03-12T00:58:38.643Z,98864.02
2018-03-12T01:01:10.324Z,98866.06
2018-03-12T01:03:41.872Z,98863.05
2018-03-12T01:06:14.444Z,98857.44
2018-03-12T01:08:45.919Z,98849.48
2018-03-12T01:11:18.107Z,98849.75
2018-03-12T01:13:50.449Z,98853.06
2018-03-12T01:16:22.491Z,98852.42
2018-03-12T01:18:53.860Z,98852.31
2018-03-12T01:21:25.223Z,98848.78
2018-03-12T01:23:56.904Z,98844.12
2018-03-12T01:26:28.405Z,98847.02
2018-03-12T01:28:59.976Z,98849.51
2018-03-12T01:31:32.003Z,98840.53
2018-03-12T01:34:03.915Z,98842.42
2018-03-12T01:36:36.000Z,98842.19
2018-03-12T01:39:07.077Z,98841.85
2018-03-12T01:41:38.540Z,98838.38
2018-03-12T01:44:10.757Z,98839.84
2018-03-12T01:46:42.523Z,98836.09
2018-03-12T01:49:15.382Z,98831.68
2018-03-12T01:51:47.589Z,98829.89
2018-03-12T01:54:19.363Z,98830.03
2018-03-12T01:56:50.655Z,98826.34
2018-03-12T01:59:22.117Z,98834.27
2018-03-12T02:01:56.076Z,98825.92
2018-03-12T02:04:27.712Z,98822.52
2018-03-12T02:07:00.689Z,98820.03
2018-03-12T02:09:32.097Z,98818.33
2018-03-12T02:12:04.151Z,98809.91
2018-03-12T02:14:35.586Z,98816.22
2018-03-12T02:17:08.208Z,98809.86
2018-03-12T02:19:40.705Z,98808.44
2018-03-12T02:22:12.623Z,98803.89
2018-03-12T02:24:44.246Z,98810.28
2018-03-12T02:27:19.844Z,98796.29
2018-03-12T02:29:51.027Z,98796.61
2018-03-12T02:32:30.746Z,98792.79
2018-03-12T02:35:03.600Z,98797.89
2018-03-12T02:37:38.085Z,98799.97
2018-03-12T02:40:10.592Z,98798.36
2018-03-12T02:42:41.997Z,98795.69
2018-03-12T02:45:17.067Z,98791.88
2018-03-12T02:47:48.436Z,98799.27
2018-03-12T02:50:19.397Z,98799.64
2018-03-12T02:52:50.903Z,98796.10
2018-03-12T02:55:21.922Z,98795.88
2018-03-12T02:57:53.373Z,98791.41
2018-03-12T03:00:25.303Z,98793.51
2018-03-12T03:02:56.491Z,98794.81
2018-03-12T03:05:27.504Z,98797.20
2018-03-12T03:08:03.721Z,98797.70
2018-03-12T03:10:34.765Z,98796.52
2018-03-12T03:13:06.468Z,98799.19
2018-03-12T03:15:37.887Z,98796.78
2018-03-12T03:18:12.197Z,98794.44
2018-03-12T03:20:42.957Z,98792.40
2018-03-12T03:23:14.101Z,98790.05
2018-03-12T03:25:45.185Z,98796.31
2018-03-12T03:28:16.324Z,98791.98
2018-03-12T03:30:49.586Z,98793.86
2018-03-12T03:33:27.872Z,98789.47
2018-03-12T03:36:04.560Z,98790.91
2018-03-12T03:38:35.361Z,98789.70
2018-03-12T03:41:06.164Z,98784.03
2018-03-12T03:43:36.717Z,98789.37
2018-03-12T03:46:07.651Z,98791.64
2018-03-12T03:48:38.580Z,98780.22
2018-03-12T03:51:10.034Z,98786.73
2018-03-12T03:53:41.246Z,98787.12
2018-03-12T03:56:11.956Z,98791.92
2018-03-12T03:58:47.665Z,98791.89
2018-03-12T04:01:19.460Z,98789.77
2018-03-12T04:03:50.500Z,98780.70
2018-03-12T04:06:21.391Z,98791.80
2018-03-12T04:08:51.831Z,98794.38
2018-03-12T04:11:22.507Z,98781.11
2018-03-12T04:13:53.026Z,98792.84
2018-03-12T04:16:23.819Z,98786.87
2018-03-12T04:18:54.876Z,98797.97
2018-03-12T04:21:26.742Z,98795.30
2018-03-12T04:23:57.095Z,98795.86
2018-03-12T04:26:30.883Z,98795.86
2018-03-12T04:29:01.922Z,98803.05
2018-03-12T04:31:33.379Z,98799.28
2018-03-12T04:34:03.878Z,98798.17
2018-03-12T04:36:34.918Z,98796.56
2018-03-12T04:39:05.722Z,98791.48
2018-03-12T04:41:37.037Z,98792.59
2018-03-12T04:44:07.750Z,98800.23
2018-03-12T04:46:39.119Z,98800.70
2018-03-12T04:49:10.077Z,98793.97
2018-03-12T04:51:41.007Z,98794.67
2018-03-12T04:54:11.811Z,98795.05
2018-03-12T04:56:42.696Z,98797.48
2018-03-12T04:59:13.799Z,98796.45
2018-03-12T05:01:45.078Z,98796.09
2018-03-12T05:04:16.825Z,98805.67
2018-03-12T05:06:47.568Z,98804.56
2018-03-12T05:09:18.056Z,98803.78
2018-03-12T05:11:49.530Z,98800.20
2018-03-12T05:14:20.128Z,98806.45
2018-03-12T05:16:51.912Z,98801.11
2018-03-12T05:19:22.937Z,98807.33
2018-03-12T05:21:54.424Z,98811.98
2018-03-12T05:24:25.815Z,98808.81
2018-03-12T05:26:57.166Z,98812.44
2018-03-12T05:29:28.183Z,98812.13
2018-03-12T05:31:59.685Z,98810.15
2018-03-12T05:34:30.991Z,98813.45
2018-03-12T05:37:02.174Z,98816.45
2018-03-12T05:39:33.939Z,98823.54
2018-03-12T05:42:06.242Z,98823.12
2018-03-12T05:44:37.434Z,98821.75
2018-03-12T05:47:09.370Z,98832.89
2018-03-12T05:49:41.233Z,98832.94
2018-03-12T05:52:13.631Z,98834.22
2018-03-12T05:57:24.538Z,98838.05
2018-03-12T05:59:55.904Z,98833.03
2018-03-12T06:02:28.566Z,98798.59
2018-03-12T06:05:00.028Z,98834.00
2018-03-12T06:07:31.344Z,98835.52
2018-03-12T06:10:02.342Z,98827.91
2018-03-12T06:12:34.510Z,98819.12
2018-03-12T06:15:08.447Z,98824.00
2018-03-12T06:17:41.389Z,98830.83
2018-03-12T06:20:13.220Z,98832.74
2018-03-12T06:22:48.375Z,98831.37
2018-03-12T06:25:20.549Z,98834.64
2018-03-12T06:27:51.928Z,98830.59
2018-03-12T06:30:24.761Z,98831.56
2018-03-12T06:32:56.188Z,98834.68
2018-03-12T06:35:30.074Z,98836.67
2018-03-12T06:38:01.697Z,98838.78
2018-03-12T06:40:34.772Z,98838.33
2018-03-12T06:43:06.256Z,98845.78
2018-03-12T06:45:37.992Z,98859.17
2018-03-12T06:48:30.647Z,98851.20
2018-03-12T06:51:04.335Z,98859.05
2018-03-12T06:53:36.192Z,98839.37
2018-03-12T06:56:07.717Z,98855.13
2018-03-12T06:58:39.346Z,98849.78
2018-03-12T07:01:10.659Z,98854.81
2018-03-12T07:03:42.793Z,98848.64
2018-03-12T07:06:20.662Z,98857.66
2018-03-12T07:08:54.967Z,98850.33
2018-03-12T07:11:27.117Z,98840.95
2018-03-12T07:14:00.116Z,98860.30
2018-03-12T07:16:32.904Z,98839.83
2018-03-12T07:19:04.968Z,98857.36
2018-03-12T07:21:36.371Z,98834.33
2018-03-12T07:24:08.028Z,98844.66
2018-03-12T07:26:39.264Z,98852.43
2018-03-12T07:29:10.671Z,98852.13
2018-03-12T07:31:44.173Z,98856.08
2018-03-12T07:34:16.721Z,98853.61
2018-03-12T07:36:48.870Z,98862.69
2018-03-12T07:39:21.144Z,98855.41
2018-03-12T07:41:52.261Z,98865.36
2018-03-12T07:44:25.185Z,98863.61
2018-03-12T07:46:56.633Z,98865.91
2018-03-12T07:49:28.378Z,98865.02
2018-03-12T07:52:00.878Z,98863.05
2018-03-12T07:54:35.300Z,98863.23
2018-03-12T07:57:07.363Z,98868.24
2018-03-12T07:59:40.193Z,98866.14
2018-03-12T08:02:12.780Z,98863.10
2018-03-12T08:04:45.849Z,98864.57
2018-03-12T08:07:17.875Z,98873.70
2018-03-12T08:09:50.287Z,98871.35
2018-03-12T08:12:23.832Z,98862.02
2018-03-12T08:14:56.072Z,98867.17
2018-03-12T08:17:28.627Z,98866.25
2018-03-12T08:20:00.016Z,98868.64
2018-03-12T08:22:31.936Z,98871.39
2018-03-12T08:25:03.696Z,98869.75
2018-03-12T08:27:35.744Z,98871.34
2018-03-12T08:30:09.783Z,98867.09
2018-03-12T08:32:48.396Z,98874.33
2018-03-12T08:35:21.242Z,98878.05
2018-03-12T08:37:54.013Z,98872.45
2018-03-12T08:40:25.359Z,98870.95
2018-03-12T08:42:57.908Z,98868.79
2018-03-12T08:45:30.980Z,98865.71
2018-03-12T08:48:03.633Z,98867.14
2018-03-12T08:50:35.086Z,98865.83
2018-03-12T08:53:07.386Z,98859.63
2018-03-12T08:55:39.918Z,98862.72
2018-03-12T08:58:19.442Z,98859.41
2018-03-12T09:01:05.521Z,98866.87
2018-03-12T09:03:38.671Z,98868.65
2018-03-12T09:06:19.761Z,98869.02
2018-03-12T09:08:51.779Z,98863.13
2018-03-12T09:11:33.930Z,98873.63
2018-03-12T09:14:13.551Z,98873.66
2018-03-12T09:16:46.853Z,98872.64
2018-03-12T09:19:19.807Z,98881.70
2018-03-12T09:21:51.200Z,98881.95
2018-03-12T09:24:30.064Z,98881.78
2018-03-12T09:27:02.887Z,98882.70
2018-03-12T09:29:35.002Z,98882.30
2018-03-12T09:32:08.838Z,98873.94
2018-03-12T09:34:41.167Z,98885.38
2018-03-12T09:37:13.297Z,98884.78
2018-03-12T09:39:45.033Z,98874.77
2018-03-12T09:42:17.385Z,98869.23
2018-03-12T09:44:49.992Z,98863.43
2018-03-12T09:47:23.139Z,98871.84
2018-03-12T09:50:01.055Z,98871.75
2018-03-12T09:52:33.317Z,98881.88
2018-03-12T09:55:05.662Z,98878.44
2018-03-12T09:57:37.143Z,98887.47
2018-03-12T10:00:09.833Z,98890.06
2018-03-12T10:02:41.919Z,98888.37
2018-03-12T10:05:34.817Z,98884.75
2018-03-12T10:08:06.901Z,98889.00
2018-03-12T10:10:39.085Z,98888.84
2018-03-12T10:13:11.467Z,98893.09
2018-03-12T10:15:44.580Z,98896.55
2018-03-12T10:18:16.464Z,98902.03
2018-03-12T10:20:59.259Z,98899.11
2018-03-12T10:23:33.036Z,98897.67
2018-03-12T10:26:10.476Z,98896.69
2018-03-12T10:28:43.948Z,98905.02
2018-03-12T10:31:18.636Z,98905.85
2018-03-12T10:33:52.255Z,98909.00
2018-03-12T10:36:24.534Z,98906.59
2018-03-12T10:38:57.519Z,98908.07
2018-03-12T10:41:36.554Z,98904.20
2018-03-12T10:44:08.659Z,98898.95
2018-03-12T10:46:46.150Z,98890.42
2018-03-12T10:49:18.968Z,98895.64
2018-03-12T10:51:57.157Z,98891.12
2018-03-12T10:54:28.658Z,98903.95
2018-03-12T10:57:07.449Z,98894.64
2018-03-12T10:59:43.650Z,98873.08
2018-03-12T11:02:39.946Z,98878.89
2018-03-12T11:05:13.673Z,98893.26
2018-03-12T11:07:57.861Z,98898.53
2018-03-12T11:10:32.168Z,98888.15
2018-03-12T11:13:04.505Z,98875.49
2018-03-12T11:18:28.880Z,98882.33
2018-03-12T11:21:00.571Z,98886.51
2018-03-12T11:23:31.704Z,98898.41
2018-03-12T11:26:14.833Z,98866.36
2018-03-12T11:28:47.868Z,98880.67
2018-03-12T11:31:20.523Z,98880.41
2018-03-12T11:33:52.303Z,98883.09
2018-03-12T11:36:28.383Z,98865.91
2018-03-12T11:39:00.134Z,98880.03
2018-03-12T11:41:31.276Z,98876.12
2018-03-12T11:44:02.086Z,98872.22
2018-03-12T11:46:40.339Z,98860.89
2018-03-12T11:49:12.119Z,98872.19
2018-03-12T11:51:45.765Z,98874.31
2018-03-12T11:54:17.347Z,98866.25
2018-03-12T11:56:48.509Z,98878.09
2018-03-12T11:59:22.601Z,98873.13
2018-03-12T12:02:19.387Z,98859.16
2018-03-12T12:04:54.083Z,98872.50
2018-03-12T12:07:38.978Z,98867.16
2018-03-12T12:10:11.994Z,98855.45
2018-03-12T12:12:44.288Z,98866.39
2018-03-12T12:15:20.004Z,98855.30
2018-03-12T12:17:52.544Z,98858.31
2018-03-12T12:20:24.018Z,98854.56
2018-03-12T12:22:57.326Z,98854.17
2018-03-12T12:25:33.972Z,98854.67
2018-03-12T12:28:06.157Z,98840.05
2018-03-12T12:30:44.980Z,98849.82
2018-03-12T12:33:17.531Z,98840.58
2018-03-12T12:35:51.728Z,98847.79
2018-03-12T12:38:27.129Z,98847.23
2018-03-12T12:40:59.472Z,98832.69
2018-03-12T12:43:32.289Z,98838.66
2018-03-12T12:46:04.329Z,98831.97
2018-03-12T12:48:36.471Z,98833.41
2018-03-12T12:51:07.445Z,98833.80
2018-03-12T12:53:38.904Z,98838.30
2018-03-12T12:56:13.946Z,98833.05
2018-03-12T12:58:46.420Z,98828.59
2018-03-12T13:01:20.628Z,98827.73
2018-03-12T13:03:51.542Z,98833.29
2018-03-12T13:06:22.995Z,98836.09
2018-03-12T13:08:54.701Z,98832.59
2018-03-12T13:11:25.821Z,98837.07
2018-03-12T13:13:58.177Z,98840.25
2018-03-12T13:16:30.156Z,98830.78
2018-03-12T13:19:01.776Z,98817.75
2018-03-12T13:21:33.452Z,98831.57
2018-03-12T13:24:05.589Z,98828.88
2018-03-12T13:26:39.317Z,98837.94
2018-03-12T13:29:10.927Z,98832.30
2018-03-12T13:31:42.718Z,98832.30
2018-03-12T13:34:30.216Z,98830.23
2018-03-12T13:37:03.813Z,98826.20
2018-03-12T13:39:35.129Z,98824.38
2018-03-12T13:42:06.513Z,98832.28
2018-03-12T13:44:39.664Z,98834.21
2018-03-12T13:47:10.601Z,98829.16
2018-03-12T13:49:41.421Z,98830.25
2018-03-12T13:52:12.164Z,98834.30
2018-03-12T13:54:43.160Z,98828.35
2018-03-12T13:57:14.711Z,98842.66
2018-03-12T13:59:46.806Z,98811.42
2018-03-12T14:02:20.250Z,98832.79
2018-03-12T14:04:52.431Z,98835.67
2018-03-12T14:07:36.296Z,98833.96
2018-03-12T14:10:09.963Z,98840.45
2018-03-12T14:12:41.077Z,98845.64
2018-03-12T14:15:17.320Z,98829.78
2018-03-12T14:17:49.263Z,98835.30
2018-03-12T14:20:21.724Z,98837.04
2018-03-12T14:22:56.934Z,98821.69
2018-03-12T14:25:29.869Z,98831.22
2018-03-12T14:31:01.927Z,98820.57
2018-03-12T14:33:34.461Z,98828.46
2018-03-12T14:36:06.335Z,98828.91
2018-03-12T14:38:38.057Z,98824.17
2018-03-12T14:41:09.348Z,98819.58
2018-03-12T14:43:40.747Z,98822.59
2018-03-12T14:46:12.478Z,98814.91
2018-03-12T14:48:44.386Z,98821.78
2018-03-12T14:51:15.524Z,98818.44
2018-03-12T14:53:48.198Z,98819.43
2018-03-12T14:56:21.202Z,98811.84
2018-03-12T14:58:52.214Z,98815.28
2018-03-12T15:01:28.264Z,98811.13
2018-03-12T15:06:39.088Z,98816.91
2018-03-12T15:09:10.300Z,98815.48
2018-03-12T15:11:42.630Z,98825.52
2018-03-12T15:16:47.166Z,98831.53
2018-03-12T15:19:18.782Z,98840.01
2018-03-12T15:22:00.744Z,98838.50
2018-03-12T15:24:33.002Z,98840.42
2018-03-12T15:27:06.249Z,98837.50
2018-03-12T15:29:38.862Z,98841.59
2018-03-12T15:32:13.079Z,98834.85
2018-03-12T15:34:45.138Z,98813.63
2018-03-12T15:37:17.060Z,98832.76
2018-03-12T15:39:48.353Z,98824.33
2018-03-12T15:42:20.312Z,98836.16
2018-03-12T15:44:52.320Z,98829.77
2018-03-12T15:47:25.780Z,98828.63
2018-03-12T15:50:00.313Z,98830.34
2018-03-12T15:52:32.201Z,98771.45
2018-03-12T15:55:06.839Z,98836.09
2018-03-12T15:57:40.837Z,98837.43
2018-03-12T16:00:17.821Z,98839.19
2018-03-12T16:02:51.049Z,98847.27
2018-03-12T16:05:22.262Z,98848.17
2018-03-12T16:07:53.285Z,98854.88
2018-03-12T16:10:26.283Z,98844.95
2018-03-12T16:12:58.220Z,98843.68
2018-03-12T16:15:30.878Z,98858.45
2018-03-12T16:18:05.044Z,98855.99
2018-03-12T16:20:37.873Z,98860.03
2018-03-12T16:26:13.188Z,98851.16
2018-03-12T16:28:46.431Z,98854.11
2018-03-12T16:36:41.440Z,98867.48
2018-03-12T16:41:57.154Z,98867.33
2018-03-12T16:44:29.627Z,98872.10
2018-03-12T16:47:02.290Z,98884.91
2018-03-12T16:49:33.966Z,98879.48
2018-03-12T16:52:06.347Z,98876.61
2018-03-12T16:54:41.552Z,98885.61
2018-03-12T16:57:20.722Z,98880.52
2018-03-12T16:59:52.014Z,98901.30
2018-03-12T17:05:06.106Z,98897.44
2018-03-12T17:07:38.536Z,98902.36
2018-03-12T17:10:10.133Z,98900.92
2018-03-12T17:12:41.521Z,98885.69
2018-03-12T17:15:17.905Z,98909.38
2018-03-12T17:17:49.011Z,98915.57
2018-03-12T17:20:20.350Z,98902.89
2018-03-12T17:25:28.825Z,98924.22
2018-03-12T17:28:01.175Z,98932.23
2018-03-12T17:30:33.828Z,98934.73
2018-03-12T17:33:05.000Z,98928.02
2018-03-12T17:35:37.036Z,98935.55
2018-03-12T17:38:09.891Z,98946.36
2018-03-12T17:40:43.889Z,98939.47
2018-03-12T17:43:18.118Z,98936.05
2018-03-12T17:45:52.246Z,98943.98
2018-03-12T17:48:24.731Z,98951.40
2018-03-12T17:50:57.452Z,98934.19
2018-03-12T17:53:30.438Z,98944.09
2018-03-12T17:56:07.796Z,98949.66
2018-03-12T17:58:40.086Z,98952.02
2018-03-12T18:01:12.975Z,98956.25
2018-03-12T18:03:50.294Z,98961.83
2018-03-12T18:06:24.950Z,98963.47
2018-03-12T18:09:14.968Z,98962.73
2018-03-12T18:11:47.980Z,98970.17
2018-03-12T18:14:20.702Z,98969.53
2018-03-12T18:16:53.560Z,98963.87
2018-03-12T18:19:27.858Z,98903.48
2018-03-12T18:22:02.067Z,98941.20
2018-03-12T18:24:40.242Z,98988.79
2018-03-12T18:27:20.106Z,98989.11
2018-03-12T18:29:53.999Z,98988.28
2018-03-12T18:32:27.030Z,98990.10
2018-03-12T18:35:00.759Z,98995.28
2018-03-12T18:37:34.370Z,98990.23
2018-03-12T18:40:17.604Z,98996.01
2018-03-12T18:42:50.495Z,98996.02
2018-03-12T18:45:29.004Z,99001.07
2018-03-12T18:48:11.051Z,98995.59
2018-03-12T18:50:45.470Z,99000.53
2018-03-12T18:53:17.709Z,99008.78
2018-03-12T18:55:53.045Z,99014.73
2018-03-12T18:58:27.359Z,99008.34
2018-03-12T19:01:06.745Z,98998.25
2018-03-12T19:03:52.553Z,99001.47
2018-03-12T19:06:40.703Z,99009.87
2018-03-12T19:09:17.122Z,99009.84
2018-03-12T19:11:52.842Z,99016.98
2018-03-12T19:14:29.285Z,99018.16
2018-03-12T19:17:04.343Z,99020.42
2018-03-12T19:19:44.604Z,99024.75
2018-03-12T19:22:17.689Z,99030.06
2018-03-12T19:24:49.953Z,99018.31
2018-03-12T19:27:23.345Z,99026.98
2018-03-12T19:32:44.077Z,99022.87
2018-03-12T19:35:18.274Z,99030.84
2018-03-12T19:37:52.861Z,99033.95
2018-03-12T19:40:27.069Z,99032.19
2018-03-12T19:43:04.885Z,99042.15
2018-03-12T19:45:39.364Z,99037.91
2018-03-12T19:48:17.032Z,99046.34
2018-03-12T19:50:54.486Z,99049.64
2018-03-12T19:53:28.899Z,99049.81
2018-03-12T19:56:05.081Z,99048.36
2018-03-12T19:58:39.867Z,99059.66
2018-03-12T20:01:15.976Z,99064.08
2018-03-12T20:03:51.948Z,99064.69
2018-03-12T20:06:30.779Z,99066.97
2018-03-12T20:09:14.770Z,99066.02
2018-03-12T20:11:51.053Z,99078.05
2018-03-12T20:14:30.237Z,99082.57
2018-03-12T20:17:10.249Z,99079.83
2018-03-12T20:19:43.221Z,99084.25
2018-03-12T20:22:17.781Z,99087.18
2018-03-12T20:24:55.132Z,99084.91
2018-03-12T20:27:36.693Z,99092.10
2018-03-12T20:30:25.658Z,99082.89
2018-03-12T20:32:58.648Z,99091.77
2018-03-12T20:35:32.606Z,99090.64
2018-03-12T20:38:05.032Z,99093.17
2018-03-12T20:40:40.268Z,99090.11
2018-03-12T20:43:15.002Z,99093.60
2018-03-12T20:45:48.736Z,99095.78
2018-03-12T20:48:23.675Z,99101.16
2018-03-12T20:50:55.548Z,99102.66
2018-03-12T20:53:28.341Z,99098.64
2018-03-12T20:56:01.791Z,99099.67
2018-03-12T20:58:34.349Z,99103.22
2018-03-12T21:01:08.986Z,99108.31
2018-03-12T21:03:46.321Z,99105.17
2018-03-12T21:06:19.994Z,99110.67
2018-03-12T21:08:54.286Z,99118.00
2018-03-12T21:11:26.156Z,99102.48
2018-03-12T21:14:01.308Z,99118.02
2018-03-12T21:16:35.463Z,99123.44
2018-03-12T21:19:11.441Z,99106.27
2018-03-12T21:21:46.096Z,99124.54
2018-03-12T21:24:18.736Z,99115.67
2018-03-12T21:26:51.420Z,99121.03
2018-03-12T21:29:23.828Z,99120.59
2018-03-12T21:32:06.162Z,99125.30
2018-03-12T21:34:38.010Z,99127.16
2018-03-12T21:37:16.012Z,99115.11
2018-03-12T21:39:50.096Z,99127.95
2018-03-12T21:42:22.023Z,99129.09
2018-03-12T21:44:56.079Z,99103.57
2018-03-12T21:47:28.022Z,99109.22
2018-03-12T21:49:59.936Z,99089.60
2018-03-12T21:52:31.182Z,99127.67
2018-03-12T21:55:02.682Z,99131.10
2018-03-12T22:00:18.750Z,99134.45
2018-03-12T22:02:50.084Z,99119.84
2018-03-12T22:05:21.448Z,99118.55
2018-03-12T22:07:53.756Z,99133.19
2018-03-12T22:10:24.623Z,99136.80
2018-03-12T22:12:55.665Z,99137.97
2018-03-12T22:15:27.194Z,99135.45
2018-03-12T22:17:58.923Z,99140.67
2018-03-12T22:20:29.856Z,99134.73
2018-03-12T22:23:00.679Z,99136.19
2018-03-12T22:25:32.774Z,99131.91
2018-03-12T22:28:03.681Z,99132.98
2018-03-12T22:30:35.027Z,99138.18
2018-03-12T22:33:10.920Z,99133.09
2018-03-12T22:35:42.053Z,99136.69
2018-03-12T22:38:13.088Z,99138.48
2018-03-12T22:40:44.459Z,99140.50
2018-03-12T22:43:15.473Z,99138.72
2018-03-12T22:45:49.492Z,99147.62
2018-03-12T22:48:21.216Z,99145.84
2018-03-12T22:50:52.274Z,99146.10
2018-03-12T22:53:23.395Z,99140.32
2018-03-12T22:55:54.614Z,99147.77
2018-03-12T22:58:25.457Z,99158.86
2018-03-12T23:00:57.639Z,99151.91
2018-03-12T23:03:29.098Z,99152.72
2018-03-12T23:05:59.935Z,99154.59
2018-03-12T23:08:31.179Z,99152.43
2018-03-12T23:11:02.375Z,99153.48
2018-03-12T23:13:33.346Z,99151.37
2018-03-12T23:16:05.298Z,99149.41
2018-03-12T23:18:36.173Z,99154.41
2018-03-12T23:21:07.952Z,99153.84
2018-03-12T23:23:49.857Z,99154.63
2018-03-12T23:26:20.908Z,99157.48
2018-03-12T23:28:51.977Z,99154.73
2018-03-12T23:31:23.726Z,99164.73
2018-03-12T23:33:54.796Z,99153.58
2018-03-12T23:36:26.548Z,99157.11
2018-03-12T23:38:57.617Z,99154.94
2018-03-12T23:41:29.025Z,99158.41
2018-03-12T23:44:01.189Z,99163.52
2018-03-12T23:46:32.635Z,99161.45
2018-03-12T23:49:03.838Z,99171.72
2018-03-12T23:51:35.234Z,99160.53
2018-03-12T23:54:06.476Z,99161.58
2018-03-12T23:56:37.399Z,99160.01
2018-03-12T23:59:08.464Z,99162.64
